Time,TemperatureF,DewpointF,PressureIn,WindDirection,WindDirectionDegrees,WindSpeedMPH,WindSpeedGustMPH,Humidity,HourlyPrecipIn,Conditions,Clouds,dailyrainin,SoftwareType,DateUTC
2013-11-26 10:30:00,39.2,29.9,29.12,ENE,68,6.0,6.0,69,0.00,,,0.00,WUHU216HW,2013-11-26 16:30:00,
2013-11-26 10:31:00,39.2,29.9,29.12,ENE,68,6.0,6.0,69,0.00,,,0.00,WUHU216HW,2013-11-26 16:31:00,
2013-11-26 10:32:00,39.2,29.9,29.12,ENE,68,6.0,6.0,69,0.00,,,0.00,WUHU216HW,2013-11-26 16:32:00,
2013-11-26 10:37:00,39.2,29.9,29.12,ENE,68,6.0,6.0,69,0.00,,,0.00,WUHU216HW,2013-11-26 16:37:00,
2013-11-26 11:00:00,40.7,30.5,29.12,NNW,338,6.0,6.0,67,0.00,,,0.00,WUHU216HW,2013-11-26 17:00:00,
2013-11-26 11:01:00,40.7,30.5,29.12,NNW,338,6.0,6.0,67,0.00,,,0.00,WUHU216HW,2013-11-26 17:01:00,
2013-11-26 11:06:00,40.7,30.5,29.12,NNW,338,6.0,6.0,67,0.00,,,0.00,WUHU216HW,2013-11-26 17:06:00,
2013-11-26 11:30:00,41.9,30.3,29.12,ENE,68,8.3,8.3,63,0.00,,,0.00,WUHU216HW,2013-11-26 17:30:00,
2013-11-26 11:31:00,41.9,30.3,29.12,ENE,68,8.3,8.3,63,0.00,,,0.00,WUHU216HW,2013-11-26 17:31:00,
2013-11-26 11:36:00,41.9,30.3,29.12,ENE,68,8.3,8.3,63,0.00,,,0.00,WUHU216HW,2013-11-26 17:36:00,
2013-11-26 12:00:00,42.8,29.9,29.11,SE,135,5.4,5.4,60,0.01,,,0.00,WUHU216HW,2013-11-26 18:00:00,
2013-11-26 12:01:00,42.8,29.9,29.11,SE,135,5.4,5.4,60,0.01,,,0.00,WUHU216HW,2013-11-26 18:01:00,
2013-11-26 12:06:00,42.8,29.9,29.11,SE,135,5.4,5.4,60,0.01,,,0.00,WUHU216HW,2013-11-26 18:06:00,
2013-11-26 12:30:00,43.6,28.8,29.10,NNE,23,5.6,5.6,56,0.01,,,0.01,WUHU216HW,2013-11-26 18:30:00,
2013-11-26 12:31:00,43.6,28.8,29.10,NNE,23,5.6,5.6,56,0.01,,,0.01,WUHU216HW,2013-11-26 18:31:00,
2013-11-26 12:36:00,43.6,28.8,29.10,NNE,23,5.6,5.6,56,0.01,,,0.01,WUHU216HW,2013-11-26 18:36:00,
2013-11-26 13:00:00,44.3,27.3,29.09,ENE,68,12.8,12.8,51,0.00,,,0.01,WUHU216HW,2013-11-26 19:00:00,
2013-11-26 13:01:00,44.3,27.3,29.09,ENE,68,12.8,12.8,51,0.00,,,0.01,WUHU216HW,2013-11-26 19:01:00,
2013-11-26 13:06:00,44.3,27.3,29.09,ENE,68,12.8,12.8,51,0.00,,,0.01,WUHU216HW,2013-11-26 19:06:00,
2013-11-26 13:30:00,44.6,27.2,29.09,NE,45,8.7,8.7,50,0.01,,,0.01,WUHU216HW,2013-11-26 19:30:00,
2013-11-26 13:31:00,44.6,27.2,29.09,NE,45,8.7,8.7,50,0.01,,,0.01,WUHU216HW,2013-11-26 19:31:00,
2013-11-26 13:36:00,44.6,27.2,29.09,NE,45,8.7,8.7,50,0.01,,,0.01,WUHU216HW,2013-11-26 19:36:00,
2013-11-26 14:00:00,45.0,26.5,29.09,East,90,18.8,18.8,48,0.02,,,0.02,WUHU216HW,2013-11-26 20:00:00,
2013-11-26 14:01:00,45.0,26.5,29.09,East,90,18.8,18.8,48,0.02,,,0.02,WUHU216HW,2013-11-26 20:01:00,
2013-11-26 14:06:00,45.0,26.5,29.09,East,90,18.8,18.8,48,0.02,,,0.02,WUHU216HW,2013-11-26 20:06:00,
2013-11-26 14:30:00,44.5,26.5,29.09,ENE,68,7.6,7.6,49,0.02,,,0.03,WUHU216HW,2013-11-26 20:30:00,
2013-11-26 14:31:00,44.5,26.5,29.09,ENE,68,7.6,7.6,49,0.02,,,0.03,WUHU216HW,2013-11-26 20:31:00,
2013-11-26 14:36:00,44.5,26.5,29.09,ENE,68,7.6,7.6,49,0.02,,,0.03,WUHU216HW,2013-11-26 20:36:00,
2013-11-26 15:00:00,45.0,26.5,29.09,NE,45,6.5,6.5,48,0.02,,,0.04,WUHU216HW,2013-11-26 21:00:00,
2013-11-26 15:01:00,45.0,26.5,29.09,NE,45,6.5,6.5,48,0.02,,,0.04,WUHU216HW,2013-11-26 21:01:00,
2013-11-26 15:06:00,45.0,26.5,29.09,NE,45,6.5,6.5,48,0.02,,,0.04,WUHU216HW,2013-11-26 21:06:00,
2013-11-26 15:30:00,44.5,26.5,29.10,NE,45,6.0,6.0,49,0.02,,,0.05,WUHU216HW,2013-11-26 21:30:00,
2013-11-26 15:31:00,44.5,26.5,29.10,NE,45,6.0,6.0,49,0.02,,,0.05,WUHU216HW,2013-11-26 21:31:00,
2013-11-26 15:36:00,44.5,26.5,29.10,NE,45,6.0,6.0,49,0.02,,,0.05,WUHU216HW,2013-11-26 21:36:00,
2013-11-26 16:00:00,43.6,26.2,29.11,SE,135,5.6,5.6,50,0.02,,,0.06,WUHU216HW,2013-11-26 22:00:00,
2013-11-26 16:01:00,43.6,26.2,29.11,SE,135,5.6,5.6,50,0.02,,,0.06,WUHU216HW,2013-11-26 22:01:00,
2013-11-26 16:06:00,43.6,26.2,29.11,SE,135,5.6,5.6,50,0.02,,,0.06,WUHU216HW,2013-11-26 22:06:00,
2013-11-26 16:30:00,42.7,26.3,29.12,ENE,68,8.7,8.7,52,0.01,,,0.07,WUHU216HW,2013-11-26 22:30:00,
2013-11-26 16:31:00,42.7,26.3,29.12,ENE,68,8.7,8.7,52,0.01,,,0.07,WUHU216HW,2013-11-26 22:31:00,
2013-11-26 16:36:00,42.7,26.3,29.12,ENE,68,8.7,8.7,52,0.01,,,0.07,WUHU216HW,2013-11-26 22:36:00,
2013-11-26 17:00:00,41.4,25.9,29.13,East,90,6.9,6.9,54,0.01,,,0.07,WUHU216HW,2013-11-26 23:00:00,
2013-11-26 17:01:00,41.4,25.9,29.13,East,90,6.9,6.9,54,0.01,,,0.07,WUHU216HW,2013-11-26 23:01:00,
2013-11-26 17:06:00,41.4,25.9,29.13,East,90,6.9,6.9,54,0.01,,,0.07,WUHU216HW,2013-11-26 23:06:00,
2013-11-26 17:30:00,40.3,26.2,29.14,ENE,68,1.8,1.8,57,0.01,,,0.08,WUHU216HW,2013-11-26 23:30:00,
2013-11-26 17:31:00,40.3,26.2,29.14,ENE,68,1.8,1.8,57,0.01,,,0.08,WUHU216HW,2013-11-26 23:31:00,
2013-11-26 17:36:00,40.3,26.2,29.14,ENE,68,1.8,1.8,57,0.01,,,0.08,WUHU216HW,2013-11-26 23:36:00,
2013-11-26 18:00:00,38.7,26.7,29.15,ENE,68,3.1,3.1,62,0.00,,,0.08,WUHU216HW,2013-11-27 00:00:00,
2013-11-26 18:01:00,38.7,26.7,29.15,ENE,68,3.1,3.1,62,0.00,,,0.08,WUHU216HW,2013-11-27 00:01:00,
2013-11-26 18:06:00,38.7,26.7,29.15,ENE,68,3.1,3.1,62,0.00,,,0.08,WUHU216HW,2013-11-27 00:06:00,
2013-11-26 18:31:00,37.4,25.6,29.17,NNE,23,3.4,3.4,62,0.00,,,0.08,WUHU216HW,2013-11-27 00:31:00,
2013-11-26 18:36:00,37.4,25.6,29.17,NNE,23,3.4,3.4,62,0.00,,,0.08,WUHU216HW,2013-11-27 00:36:00,